sim
Sign-in with your pilot id or email,
or register
Callsign
Passwort

Schedule Details

Flight Number: OEO7872
Departure: Dusseldorf International Airport (EDDL) at 07:20
Arrival: Fuerteventura Airport (GCFV) at 12:20

Weather Information
Getting current METAR information for EDDL 192220Z 08005KT CAVOK 12/05 Q1028 NOSIG
Getting current METAR information for GCFV 192200Z AUTO 36015KT 9999 FEW030 BKN045 18/12 Q1018

Schedule Frequency

Route Map